Relevés horaires St-Hubert (Belgique)


Relevés horaires à St-Hubert - Dimanche 29 Mai 2022
Heure UTC1 Température [°C] Vent [km/h] Hum. [%] Pres.4 [hPa] Visi. [Km] Nébu. [octa] Préc.5 [mm] Cond.
2m. Res. Ros. Dir.2 Vit. Moy. Raf.3
23:00 3.4 2 2.2 NE 5.6 5.6 7.4 92 1014.9(-0.5/3h) 30 0/8 -- --
22:00 4.4 4.4 3.1 N 3.7 3.7 5.6 91 1014.9(0.1/3h) 45 3/8 -- --
21:00 5.4 5.4 3.1 NNE 3.7 9.3 14.8 85 1014.8(0.1/3h) 45 2/8 -- --
20:00 6.7 5.8 3.7 N 5.6 5.6 11.1 81 1014.6(0.2/3h) 50 8/8 -- --
19:00 7.3 6.5 3.7 N 5.6 9.3 14.8 78 1014.4(-0.3/3h) 45 1/8 -- --
18:00 9.0 7.6 4.4 N 9.3 14.8 18.5 73 1013.8(-0.8/3h) 35 6/8 0.3/12h
Il y a de la pluie faible et continue à la station au moment de l'observation
17:00 9.7 8.8 5.0 N 7.4 11.1 14.8 72 1013.6(-1.3/3h) 40 8/8 -- --
16:00 10.1 8.6 4.3 NNO 11.1 11.1 14.8 67 1014(-1.0/3h) 30 0/8 -- --
15:00 9.4 8.4 3.8 NNO 7.4 14.8 18.5 68 1014.5(-1.1/3h) 45 0/8 -- Ciel clair
14:00 8.7 7.6 4.7 NNO 7.4 9.3 16.7 76 1015.3(-1.0/3h) 40 4/8 -- Ciel clair
13:00 9.8 9.4 3.2 N 5.6 7.4 13.0 63 1015.1(-1.0/3h) 35 8/8 -- --
12:00 8.2 7 2.4 N 7.4 9.3 14.8 67 1016(-0.7/3h) 45 8/8 0/6h
--
11:00 7.8 6.6 1.8 NO 7.4 9.3 14.8 66 1016.5(-0.4/3h) 30 8/8 -- Ciel clair
10:00 7.2 5.4 1.1 NO 9.3 9.3 13.0 65 1016.9(-0.2/3h) 35 8/8 -- --
09:00 6.9 5.5 0.4 NNO 7.4 9.3 14.8 63 1017.1(0.1/3h) 30 8/8 -- --
08:00 6.3 4.8 1.6 N 7.4 9.3 14.8 72 1017.4(0.1/3h) 29 8/8 -- --
07:00 5.9 4.3 2.4 N 7.4 9.3 13.0 78 1017.4(-0.2/3h) 30 4/8 -- --
06:00 5.1 2.9 2.7 N 9.3 9.3 13.0 84 1017.4(-0.6/3h) 24 5/8 0/12h
--
05:00 3.9 3.9 2.3 N 3.7 5.6 9.3 89 1017.9(-0.9/3h) 14 8/8 -- --
04:00 3.0 3.0 1.6 N 3.7 5.6 9.3 90 1018.4(-0.9/3h) 14 0/8 -- --
03:00 3.1 3.1 1.4 NNE 3.7 5.6 9.3 89 1018.5(-1.3/3h) 21 0/8 -- --
02:00 3.4 3.4 1.5 N 3.7 3.7 5.6 87 1019(-1.2/3h) 25 0/8 -- --
01:00 3.1 3.1 0.9 NE 3.7 5.6 9.3 85 1019.4(-1.3/3h) 29 0/8 -- --
00:00 4.5 3.3 1.3 N 5.6 9.3 14.8 80 1019.5(-1.3/3h) 30 0/8 0/6h
0/24h
--

1 Coordinated Universal Time. Actuellement il est 07:00 locale et 06:00 UTC.

2 Le vent souffle depuis la direction indiquée vers la direction oposée.

3 Les rafales max. sont disponible 40 min après l'heure du relevé.

4 Pour les stations d'altitude (plus de 600m) le géopotentiel du niveau le plus proche de la pression obligatoire est indiqué.

5 Les stations disposant d'un diffuseur peuvent indiquer "trace". Cela signifie que des précipitations ont touchés le sol mais que la quantité est inférieure à 0.1 mm.

Récapitulatif de la journée
Température [°C] Vent [km/h] Ensoleillement4 [h] Precipitations totale5 [mm] Pression [Hpa]
Min1 Max.2 Moy.3 Max. Min Max.
2.7 11.3 8.4 18.5 0 h 0 min 0.3 1013.6 1019.5

1 Température minimale relevée entre 18:00 UTC la veille et 18:00 UTC le jour donné.

2 Température maximale relevée entre 06:00 UTC le jour donné et 06:00 UTC le lendemain.

3 Vent moyen de la journée basé sur les relevés horaires.

4 Ensoleillement en heures relevé entre 06:00 UTC la veille et 06:00 UTC le jour donné.

5 Précipitations totales tombées entre 06:00 UTC la jour donné et 06:00 UTC le lendemain.

Graphiques horaires